CFG7PC EDDF-LEPA
Flight info
| Callsign | CFG7PC |
|---|---|
| Flight time | 1h 48m |
| Altitude | 39000 |
| Route | ANEKI2L/18 ANEKI Y163 HERBI Y164 MOPAN DCT LUTIX DCT BENOT DCT NEMOS DCT GEVEA DCT INCUS DCT BALSI DCT RETNO DCT TUPOX DCT MTG DCT DIVKO DCT VATIR DCT PIVUS N852 VERSO L129 LUNI |
| Aircraft | A339/H-VGDW/C |
Departure
| Time | 2026-05-05 18:43 |
|---|---|
| Airport | Frankfurt Main Airport (EDDF) |
Arrival
| Time | 2026-05-05 20:32 |
|---|---|
| Airport | Palma de Mallorca Airport (LEPA) |
| Time | Latitude | Longitude | Altitude | Speed | Heading |
|---|---|---|---|---|---|
| 2026-05-05 17:57 | 50.04801 | 8.56935 | 361 ft | 0 kts | 294° |
| 2026-05-05 18:28 | 50.04797 | 8.56949 | 361 ft | 2 kts | 294° |
| 2026-05-05 18:28 | 50.04791 | 8.56971 | 361 ft | 2 kts | 294° |
| 2026-05-05 18:29 | 50.04787 | 8.56984 | 362 ft | 2 kts | 292° |
| 2026-05-05 18:29 | 50.04784 | 8.57007 | 362 ft | 2 kts | 256° |
| 2026-05-05 18:29 | 50.04791 | 8.57028 | 361 ft | 2 kts | 227° |
| 2026-05-05 18:29 | 50.04800 | 8.57040 | 361 ft | 0 kts | 205° |
| 2026-05-05 18:30 | 50.04791 | 8.57033 | 361 ft | 4 kts | 209° |
| 2026-05-05 18:30 | 50.04779 | 8.57023 | 361 ft | 0 kts | 206° |
| 2026-05-05 18:34 | 50.04778 | 8.57023 | 361 ft | 0 kts | 206° |
| 2026-05-05 18:34 | 50.04767 | 8.57014 | 361 ft | 2 kts | 206° |
| 2026-05-05 18:34 | 50.04742 | 8.56996 | 361 ft | 4 kts | 204° |
| 2026-05-05 18:34 | 50.04704 | 8.56970 | 361 ft | 6 kts | 205° |
| 2026-05-05 18:35 | 50.04654 | 8.56936 | 361 ft | 8 kts | 203° |
| 2026-05-05 18:35 | 50.04592 | 8.56904 | 361 ft | 10 kts | 193° |
| 2026-05-05 18:35 | 50.04519 | 8.56879 | 361 ft | 11 kts | 193° |
| 2026-05-05 18:35 | 50.04460 | 8.56821 | 361 ft | 9 kts | 238° |
| 2026-05-05 18:36 | 50.04430 | 8.56723 | 361 ft | 10 kts | 250° |
| 2026-05-05 18:36 | 50.04403 | 8.56609 | 361 ft | 11 kts | 250° |
| 2026-05-05 18:36 | 50.04372 | 8.56483 | 361 ft | 12 kts | 249° |
| 2026-05-05 18:36 | 50.04340 | 8.56349 | 361 ft | 13 kts | 250° |
| 2026-05-05 18:37 | 50.04306 | 8.56206 | 361 ft | 14 kts | 250° |
| 2026-05-05 18:37 | 50.04272 | 8.56057 | 361 ft | 14 kts | 250° |
| 2026-05-05 18:37 | 50.04236 | 8.55904 | 361 ft | 15 kts | 250° |
| 2026-05-05 18:37 | 50.04196 | 8.55746 | 361 ft | 15 kts | 249° |
| 2026-05-05 18:38 | 50.04157 | 8.55585 | 361 ft | 16 kts | 250° |
| 2026-05-05 18:38 | 50.04118 | 8.55421 | 361 ft | 16 kts | 250° |
| 2026-05-05 18:38 | 50.04077 | 8.55254 | 361 ft | 16 kts | 249° |
| 2026-05-05 18:38 | 50.04036 | 8.55082 | 361 ft | 16 kts | 250° |
| 2026-05-05 18:39 | 50.03995 | 8.54911 | 361 ft | 17 kts | 250° |
| 2026-05-05 18:39 | 50.03953 | 8.54736 | 361 ft | 17 kts | 249° |
| 2026-05-05 18:39 | 50.03910 | 8.54563 | 361 ft | 17 kts | 249° |
| 2026-05-05 18:39 | 50.03865 | 8.54387 | 361 ft | 17 kts | 241° |
| 2026-05-05 18:40 | 50.03803 | 8.54229 | 361 ft | 17 kts | 252° |
| 2026-05-05 18:40 | 50.03762 | 8.54054 | 361 ft | 17 kts | 250° |
| 2026-05-05 18:40 | 50.03720 | 8.53880 | 361 ft | 17 kts | 249° |
| 2026-05-05 18:40 | 50.03676 | 8.53704 | 361 ft | 17 kts | 249° |
| 2026-05-05 18:41 | 50.03632 | 8.53526 | 361 ft | 17 kts | 249° |
| 2026-05-05 18:41 | 50.03589 | 8.53348 | 361 ft | 17 kts | 249° |
| 2026-05-05 18:41 | 50.03545 | 8.53169 | 361 ft | 17 kts | 250° |
| 2026-05-05 18:41 | 50.03502 | 8.52990 | 361 ft | 17 kts | 250° |
| 2026-05-05 18:42 | 50.03455 | 8.52812 | 361 ft | 17 kts | 247° |
| 2026-05-05 18:42 | 50.03411 | 8.52652 | 361 ft | 10 kts | 243° |
| 2026-05-05 18:42 | 50.03358 | 8.52606 | 361 ft | 9 kts | 187° |
| 2026-05-05 18:42 | 50.03314 | 8.52605 | 361 ft | 24 kts | 181° |
| 2026-05-05 18:43 | 50.02893 | 8.52608 | 361 ft | 93 kts | 180° |
| 2026-05-05 18:43 | 50.02045 | 8.52618 | 361 ft | 149 kts | 180° |
| 2026-05-05 18:43 | 50.00889 | 8.52633 | 577 ft | 176 kts | 180° |
| 2026-05-05 18:43 | 49.99671 | 8.52669 | 1187 ft | 179 kts | 180° |
| 2026-05-05 18:44 | 49.98422 | 8.52700 | 1821 ft | 182 kts | 181° |
| 2026-05-05 18:44 | 49.97135 | 8.52732 | 2442 ft | 186 kts | 180° |
| 2026-05-05 18:44 | 49.95802 | 8.52856 | 2786 ft | 200 kts | 179° |
| 2026-05-05 18:44 | 49.94348 | 8.52999 | 3096 ft | 217 kts | 179° |
| 2026-05-05 18:45 | 49.92790 | 8.53136 | 3490 ft | 231 kts | 180° |
| 2026-05-05 18:45 | 49.91175 | 8.53266 | 3883 ft | 233 kts | 180° |
| 2026-05-05 18:45 | 49.89554 | 8.53385 | 3977 ft | 233 kts | 180° |
| 2026-05-05 18:45 | 49.87922 | 8.53501 | 3994 ft | 232 kts | 180° |
| 2026-05-05 18:46 | 49.86304 | 8.53610 | 3996 ft | 233 kts | 180° |
| 2026-05-05 18:46 | 49.84667 | 8.53721 | 4305 ft | 240 kts | 180° |
| 2026-05-05 18:46 | 49.83021 | 8.53832 | 5135 ft | 237 kts | 180° |
| 2026-05-05 18:46 | 49.81381 | 8.53945 | 5936 ft | 236 kts | 181° |
| 2026-05-05 18:47 | 49.79751 | 8.54054 | 6677 ft | 238 kts | 181° |
| 2026-05-05 18:47 | 49.78099 | 8.54100 | 7405 ft | 239 kts | 185° |
| 2026-05-05 18:47 | 49.76420 | 8.53935 | 7961 ft | 248 kts | 188° |
| 2026-05-05 18:47 | 49.74619 | 8.53696 | 8362 ft | 266 kts | 188° |
| 2026-05-05 18:48 | 49.72753 | 8.53399 | 8899 ft | 276 kts | 193° |
| 2026-05-05 18:48 | 49.70904 | 8.52632 | 9628 ft | 278 kts | 200° |
| 2026-05-05 18:48 | 49.69059 | 8.51689 | 10343 ft | 282 kts | 201° |
| 2026-05-05 18:48 | 49.67137 | 8.50697 | 10714 ft | 299 kts | 200° |
| 2026-05-05 18:49 | 49.65097 | 8.49670 | 11078 ft | 315 kts | 200° |
| 2026-05-05 18:49 | 49.62967 | 8.48623 | 11725 ft | 322 kts | 200° |
| 2026-05-05 18:49 | 49.60848 | 8.47596 | 12468 ft | 324 kts | 199° |
| 2026-05-05 18:49 | 49.58680 | 8.46554 | 13192 ft | 327 kts | 199° |
| 2026-05-05 18:50 | 49.56505 | 8.45515 | 13925 ft | 330 kts | 199° |
| 2026-05-05 18:50 | 49.54293 | 8.44460 | 14623 ft | 334 kts | 199° |
| 2026-05-05 18:50 | 49.52043 | 8.43389 | 15348 ft | 337 kts | 199° |
| 2026-05-05 18:50 | 49.49797 | 8.42324 | 16065 ft | 340 kts | 199° |
| 2026-05-05 18:51 | 49.47538 | 8.41253 | 16747 ft | 344 kts | 198° |
| 2026-05-05 18:51 | 49.45209 | 8.40151 | 17442 ft | 347 kts | 198° |
| 2026-05-05 18:51 | 49.42911 | 8.39066 | 18117 ft | 351 kts | 198° |
| 2026-05-05 18:51 | 49.40560 | 8.37957 | 18816 ft | 354 kts | 198° |
| 2026-05-05 18:52 | 49.38187 | 8.36838 | 19471 ft | 358 kts | 197° |
| 2026-05-05 18:52 | 49.35812 | 8.35721 | 20089 ft | 362 kts | 197° |
| 2026-05-05 18:52 | 49.33389 | 8.34582 | 20711 ft | 366 kts | 196° |
| 2026-05-05 18:52 | 49.30929 | 8.33429 | 21322 ft | 369 kts | 196° |
| 2026-05-05 18:53 | 49.28473 | 8.32277 | 21922 ft | 373 kts | 196° |
| 2026-05-05 18:53 | 49.25975 | 8.31108 | 22501 ft | 376 kts | 195° |
| 2026-05-05 18:53 | 49.23470 | 8.29934 | 23059 ft | 379 kts | 195° |
| 2026-05-05 18:53 | 49.20929 | 8.28746 | 23596 ft | 383 kts | 195° |
| 2026-05-05 18:54 | 49.18358 | 8.27545 | 24135 ft | 386 kts | 195° |
| 2026-05-05 18:54 | 49.15795 | 8.26349 | 24682 ft | 389 kts | 195° |
| 2026-05-05 18:54 | 49.13193 | 8.25138 | 25225 ft | 391 kts | 195° |
| 2026-05-05 18:54 | 49.10534 | 8.23901 | 25735 ft | 394 kts | 195° |
| 2026-05-05 18:55 | 49.07926 | 8.22689 | 26224 ft | 397 kts | 195° |
| 2026-05-05 18:55 | 49.05242 | 8.21442 | 26697 ft | 399 kts | 195° |
| 2026-05-05 18:55 | 49.02573 | 8.20205 | 27145 ft | 402 kts | 195° |
| 2026-05-05 18:55 | 48.99897 | 8.18966 | 27597 ft | 405 kts | 195° |
| 2026-05-05 18:56 | 48.97176 | 8.17708 | 28030 ft | 408 kts | 195° |
| 2026-05-05 18:56 | 48.94407 | 8.16428 | 28466 ft | 410 kts | 195° |
| 2026-05-05 18:56 | 48.91678 | 8.15167 | 28915 ft | 412 kts | 195° |
| 2026-05-05 18:56 | 48.88950 | 8.13908 | 29311 ft | 415 kts | 195° |
| 2026-05-05 18:57 | 48.86144 | 8.12614 | 29713 ft | 417 kts | 195° |
| 2026-05-05 18:57 | 48.83369 | 8.11335 | 30095 ft | 420 kts | 195° |
| 2026-05-05 18:57 | 48.80565 | 8.10047 | 30466 ft | 423 kts | 195° |
| 2026-05-05 18:57 | 48.77753 | 8.08755 | 30815 ft | 425 kts | 195° |
| 2026-05-05 18:58 | 48.74920 | 8.07455 | 31146 ft | 427 kts | 195° |
| 2026-05-05 18:58 | 48.72055 | 8.06143 | 31473 ft | 428 kts | 195° |
| 2026-05-05 18:58 | 48.69203 | 8.04838 | 31788 ft | 430 kts | 195° |
| 2026-05-05 18:58 | 48.66301 | 8.03513 | 32114 ft | 431 kts | 195° |
| 2026-05-05 18:59 | 48.63420 | 8.02199 | 32431 ft | 433 kts | 195° |
| 2026-05-05 18:59 | 48.60519 | 8.00877 | 32704 ft | 435 kts | 195° |
| 2026-05-05 18:59 | 48.57577 | 7.99537 | 33001 ft | 436 kts | 195° |
| 2026-05-05 18:59 | 48.54679 | 7.98219 | 33291 ft | 437 kts | 195° |
| 2026-05-05 19:00 | 48.51733 | 7.96883 | 33703 ft | 434 kts | 196° |
| 2026-05-05 19:00 | 48.48888 | 7.95589 | 34115 ft | 432 kts | 196° |
| 2026-05-05 19:00 | 48.46002 | 7.94278 | 34451 ft | 431 kts | 196° |
| 2026-05-05 19:00 | 48.43119 | 7.92974 | 34751 ft | 430 kts | 196° |
| 2026-05-05 19:01 | 48.40227 | 7.91667 | 35056 ft | 428 kts | 196° |
| 2026-05-05 19:01 | 48.37382 | 7.90381 | 35306 ft | 427 kts | 196° |
| 2026-05-05 19:01 | 48.34531 | 7.89096 | 35528 ft | 427 kts | 197° |
| 2026-05-05 19:01 | 48.31654 | 7.87799 | 35758 ft | 427 kts | 197° |
| 2026-05-05 19:02 | 48.28799 | 7.86512 | 35998 ft | 427 kts | 197° |
| 2026-05-05 19:02 | 48.25954 | 7.85231 | 36252 ft | 427 kts | 197° |
| 2026-05-05 19:02 | 48.23065 | 7.83934 | 36516 ft | 428 kts | 197° |
| 2026-05-05 19:02 | 48.20207 | 7.82653 | 36789 ft | 428 kts | 197° |
| 2026-05-05 19:03 | 48.17348 | 7.81370 | 37068 ft | 428 kts | 197° |
| 2026-05-05 19:03 | 48.14479 | 7.80085 | 37296 ft | 429 kts | 197° |
| 2026-05-05 19:03 | 48.11633 | 7.78812 | 37494 ft | 430 kts | 197° |
| 2026-05-05 19:03 | 48.08751 | 7.77524 | 37681 ft | 431 kts | 197° |
| 2026-05-05 19:04 | 48.05835 | 7.76224 | 37880 ft | 432 kts | 197° |
| 2026-05-05 19:04 | 48.02952 | 7.74939 | 38058 ft | 434 kts | 197° |
| 2026-05-05 19:04 | 48.00043 | 7.73645 | 38232 ft | 435 kts | 197° |
| 2026-05-05 19:04 | 47.97133 | 7.72350 | 38397 ft | 436 kts | 197° |
| 2026-05-05 19:05 | 47.94218 | 7.71056 | 38570 ft | 437 kts | 197° |
| 2026-05-05 19:05 | 47.91307 | 7.69765 | 38739 ft | 438 kts | 197° |
| 2026-05-05 19:05 | 47.88435 | 7.68494 | 38869 ft | 440 kts | 197° |
| 2026-05-05 19:05 | 47.85516 | 7.67203 | 38871 ft | 445 kts | 197° |
| 2026-05-05 19:06 | 47.79491 | 7.64543 | 38876 ft | 454 kts | 197° |
| 2026-05-05 19:06 | 47.73337 | 7.61833 | 38882 ft | 460 kts | 197° |
| 2026-05-05 19:07 | 47.67193 | 7.59133 | 38878 ft | 460 kts | 197° |
| 2026-05-05 19:07 | 47.61037 | 7.56435 | 38882 ft | 460 kts | 197° |
| 2026-05-05 19:08 | 47.54874 | 7.53739 | 38886 ft | 460 kts | 198° |
| 2026-05-05 19:08 | 47.48742 | 7.51062 | 38884 ft | 460 kts | 198° |
| 2026-05-05 19:09 | 47.42561 | 7.48369 | 38884 ft | 460 kts | 198° |
| 2026-05-05 19:09 | 47.36404 | 7.45693 | 38892 ft | 460 kts | 198° |
| 2026-05-05 19:10 | 47.30246 | 7.43023 | 38894 ft | 460 kts | 198° |
| 2026-05-05 19:10 | 47.24147 | 7.40067 | 38897 ft | 459 kts | 204° |
| 2026-05-05 19:11 | 47.18470 | 7.35761 | 38900 ft | 458 kts | 213° |
| 2026-05-05 19:11 | 47.13362 | 7.30105 | 38893 ft | 458 kts | 221° |
| 2026-05-05 19:12 | 47.08991 | 7.23289 | 38896 ft | 459 kts | 230° |
| 2026-05-05 19:12 | 47.05001 | 7.15930 | 38888 ft | 459 kts | 230° |
| 2026-05-05 19:13 | 47.00980 | 7.08538 | 38889 ft | 460 kts | 230° |
| 2026-05-05 19:13 | 46.96972 | 7.01211 | 38891 ft | 460 kts | 230° |
| 2026-05-05 19:14 | 46.92833 | 6.93999 | 38893 ft | 460 kts | 226° |
| 2026-05-05 19:14 | 46.88296 | 6.87430 | 38892 ft | 459 kts | 221° |
| 2026-05-05 19:15 | 46.83363 | 6.81416 | 38897 ft | 459 kts | 219° |
| 2026-05-05 19:15 | 46.78397 | 6.75492 | 38897 ft | 459 kts | 219° |
| 2026-05-05 19:16 | 46.73425 | 6.69574 | 38900 ft | 459 kts | 219° |
| 2026-05-05 19:16 | 46.68488 | 6.63724 | 38897 ft | 459 kts | 219° |
| 2026-05-05 19:17 | 46.63490 | 6.57815 | 38897 ft | 459 kts | 219° |
| 2026-05-05 19:17 | 46.58499 | 6.51929 | 38901 ft | 459 kts | 219° |
| 2026-05-05 19:18 | 46.53538 | 6.46092 | 38896 ft | 460 kts | 219° |
| 2026-05-05 19:18 | 46.48532 | 6.40217 | 38892 ft | 459 kts | 219° |
| 2026-05-05 19:19 | 46.43540 | 6.34371 | 38898 ft | 459 kts | 219° |
| 2026-05-05 19:19 | 46.38555 | 6.28545 | 38897 ft | 459 kts | 219° |
| 2026-05-05 19:20 | 46.33533 | 6.22746 | 38896 ft | 459 kts | 217° |
| 2026-05-05 19:20 | 46.28138 | 6.17766 | 38896 ft | 459 kts | 208° |
| 2026-05-05 19:21 | 46.22266 | 6.13928 | 38904 ft | 460 kts | 201° |
| 2026-05-05 19:21 | 46.16096 | 6.11354 | 38904 ft | 461 kts | 193° |
| 2026-05-05 19:22 | 46.09737 | 6.09818 | 38903 ft | 462 kts | 191° |
| 2026-05-05 19:22 | 46.03340 | 6.08372 | 38906 ft | 462 kts | 191° |
| 2026-05-05 19:23 | 45.96946 | 6.06943 | 38913 ft | 461 kts | 191° |
| 2026-05-05 19:23 | 45.90579 | 6.05523 | 38909 ft | 462 kts | 191° |
| 2026-05-05 19:24 | 45.84325 | 6.04135 | 38908 ft | 462 kts | 191° |
| 2026-05-05 19:24 | 45.77945 | 6.02730 | 38906 ft | 461 kts | 191° |
| 2026-05-05 19:25 | 45.71566 | 6.01324 | 38913 ft | 461 kts | 191° |
| 2026-05-05 19:25 | 45.65222 | 5.99926 | 38898 ft | 460 kts | 191° |
| 2026-05-05 19:26 | 45.58864 | 5.98527 | 38904 ft | 460 kts | 191° |
| 2026-05-05 19:26 | 45.52479 | 5.97126 | 38911 ft | 460 kts | 191° |
| 2026-05-05 19:27 | 45.46144 | 5.95585 | 38911 ft | 459 kts | 194° |
| 2026-05-05 19:27 | 45.39846 | 5.93608 | 38931 ft | 459 kts | 195° |
| 2026-05-05 19:28 | 45.33566 | 5.91665 | 38950 ft | 459 kts | 195° |
| 2026-05-05 19:28 | 45.27298 | 5.89716 | 38939 ft | 459 kts | 194° |
| 2026-05-05 19:29 | 45.21061 | 5.87783 | 38941 ft | 459 kts | 194° |
| 2026-05-05 19:29 | 45.14748 | 5.85824 | 38950 ft | 459 kts | 194° |
| 2026-05-05 19:30 | 45.08520 | 5.83898 | 38951 ft | 458 kts | 194° |
| 2026-05-05 19:30 | 45.02260 | 5.81966 | 38954 ft | 459 kts | 195° |
| 2026-05-05 19:31 | 44.96011 | 5.80042 | 38959 ft | 458 kts | 195° |
| 2026-05-05 19:31 | 44.89967 | 5.78186 | 38959 ft | 458 kts | 195° |
| 2026-05-05 19:32 | 44.83678 | 5.76259 | 38956 ft | 456 kts | 195° |
| 2026-05-05 19:32 | 44.77578 | 5.74390 | 38949 ft | 456 kts | 195° |
| 2026-05-05 19:33 | 44.71338 | 5.72482 | 38956 ft | 457 kts | 195° |
| 2026-05-05 19:33 | 44.65116 | 5.70585 | 38948 ft | 456 kts | 195° |
| 2026-05-05 19:34 | 44.58895 | 5.68688 | 38953 ft | 456 kts | 195° |
| 2026-05-05 19:35 | 44.49575 | 5.65858 | 38948 ft | 455 kts | 195° |
| 2026-05-05 19:35 | 44.43329 | 5.63969 | 38955 ft | 456 kts | 195° |
| 2026-05-05 19:36 | 44.37201 | 5.61694 | 38937 ft | 453 kts | 201° |
| 2026-05-05 19:36 | 44.31525 | 5.58120 | 38943 ft | 449 kts | 210° |
| 2026-05-05 19:37 | 44.25932 | 5.54131 | 38929 ft | 450 kts | 210° |
| 2026-05-05 19:37 | 44.20311 | 5.50131 | 38921 ft | 449 kts | 210° |
| 2026-05-05 19:38 | 44.14728 | 5.46173 | 38915 ft | 449 kts | 210° |
| 2026-05-05 19:38 | 44.09143 | 5.42223 | 38911 ft | 451 kts | 209° |
| 2026-05-05 19:39 | 44.03498 | 5.38249 | 38917 ft | 450 kts | 210° |
| 2026-05-05 19:39 | 43.97902 | 5.34312 | 38916 ft | 451 kts | 209° |
| 2026-05-05 19:40 | 43.92281 | 5.30371 | 38945 ft | 449 kts | 209° |
| 2026-05-05 19:40 | 43.86852 | 5.26571 | 38936 ft | 449 kts | 209° |
| 2026-05-05 19:41 | 43.81287 | 5.22684 | 38939 ft | 449 kts | 209° |
| 2026-05-05 19:41 | 43.75715 | 5.18801 | 38922 ft | 449 kts | 209° |
| 2026-05-05 19:42 | 43.70150 | 5.14930 | 38920 ft | 448 kts | 209° |
| 2026-05-05 19:42 | 43.64544 | 5.11038 | 38939 ft | 449 kts | 209° |
| 2026-05-05 19:43 | 43.58989 | 5.07190 | 38925 ft | 446 kts | 209° |
| 2026-05-05 19:43 | 43.53428 | 5.03344 | 38912 ft | 445 kts | 209° |
| 2026-05-05 19:44 | 43.47889 | 4.99527 | 38919 ft | 444 kts | 209° |
| 2026-05-05 19:44 | 43.42369 | 4.95725 | 38903 ft | 444 kts | 209° |
| 2026-05-05 19:45 | 43.36839 | 4.91927 | 38938 ft | 444 kts | 210° |
| 2026-05-05 19:45 | 43.31341 | 4.88154 | 38884 ft | 443 kts | 209° |
| 2026-05-05 19:46 | 43.25793 | 4.84360 | 38941 ft | 442 kts | 210° |
| 2026-05-05 19:46 | 43.20292 | 4.80603 | 38953 ft | 443 kts | 209° |
| 2026-05-05 19:47 | 43.14813 | 4.76868 | 38934 ft | 441 kts | 209° |
| 2026-05-05 19:47 | 43.09298 | 4.73117 | 38926 ft | 443 kts | 209° |
| 2026-05-05 19:48 | 43.03782 | 4.69374 | 38933 ft | 441 kts | 210° |
| 2026-05-05 19:48 | 42.98302 | 4.65663 | 38924 ft | 441 kts | 209° |
| 2026-05-05 19:49 | 42.92821 | 4.61960 | 38918 ft | 440 kts | 210° |
| 2026-05-05 19:49 | 42.87443 | 4.58330 | 38924 ft | 441 kts | 210° |
| 2026-05-05 19:50 | 42.81932 | 4.54618 | 38926 ft | 442 kts | 210° |
| 2026-05-05 19:50 | 42.76456 | 4.50940 | 38945 ft | 442 kts | 210° |
| 2026-05-05 19:51 | 42.70969 | 4.47259 | 38914 ft | 439 kts | 210° |
| 2026-05-05 19:51 | 42.65466 | 4.43576 | 38915 ft | 440 kts | 210° |
| 2026-05-05 19:52 | 42.59996 | 4.39921 | 38926 ft | 440 kts | 210° |
| 2026-05-05 19:52 | 42.54533 | 4.36277 | 38909 ft | 439 kts | 210° |
| 2026-05-05 19:53 | 42.49038 | 4.32619 | 38900 ft | 439 kts | 209° |
| 2026-05-05 19:53 | 42.43540 | 4.28967 | 38914 ft | 440 kts | 209° |
| 2026-05-05 19:54 | 42.38046 | 4.25324 | 38949 ft | 440 kts | 209° |
| 2026-05-05 19:54 | 42.32554 | 4.21690 | 38905 ft | 440 kts | 209° |
| 2026-05-05 19:55 | 42.27071 | 4.18064 | 38914 ft | 440 kts | 209° |
| 2026-05-05 19:55 | 42.21579 | 4.14441 | 38914 ft | 440 kts | 209° |
| 2026-05-05 19:56 | 42.16095 | 4.10743 | 38917 ft | 439 kts | 212° |
| 2026-05-05 19:56 | 42.10761 | 4.06817 | 38912 ft | 438 kts | 211° |
| 2026-05-05 19:57 | 42.05418 | 4.02902 | 38956 ft | 437 kts | 212° |
| 2026-05-05 19:57 | 42.00089 | 3.99016 | 38902 ft | 436 kts | 210° |
| 2026-05-05 19:58 | 41.94546 | 3.95635 | 38910 ft | 439 kts | 205° |
| 2026-05-05 19:58 | 41.88728 | 3.93013 | 38912 ft | 441 kts | 199° |
| 2026-05-05 19:59 | 41.82711 | 3.91203 | 38920 ft | 445 kts | 194° |
| 2026-05-05 19:59 | 41.76574 | 3.89767 | 38919 ft | 445 kts | 195° |
| 2026-05-05 20:00 | 41.70500 | 3.88338 | 38915 ft | 446 kts | 195° |
| 2026-05-05 20:00 | 41.64400 | 3.86922 | 38912 ft | 445 kts | 195° |
| 2026-05-05 20:01 | 41.58290 | 3.85516 | 38893 ft | 445 kts | 195° |
| 2026-05-05 20:01 | 41.52173 | 3.84119 | 38897 ft | 444 kts | 195° |
| 2026-05-05 20:02 | 41.46076 | 3.82726 | 38919 ft | 443 kts | 195° |
| 2026-05-05 20:02 | 41.40027 | 3.81341 | 38903 ft | 442 kts | 195° |
| 2026-05-05 20:03 | 41.33989 | 3.79961 | 38889 ft | 440 kts | 195° |
| 2026-05-05 20:03 | 41.30969 | 3.79274 | 38564 ft | 432 kts | 195° |
| 2026-05-05 20:03 | 41.28046 | 3.78609 | 37645 ft | 429 kts | 195° |
| 2026-05-05 20:03 | 41.25143 | 3.77947 | 36682 ft | 429 kts | 195° |
| 2026-05-05 20:04 | 41.22210 | 3.77279 | 35748 ft | 427 kts | 196° |
| 2026-05-05 20:04 | 41.19299 | 3.76597 | 34921 ft | 423 kts | 198° |
| 2026-05-05 20:04 | 41.16497 | 3.75757 | 34055 ft | 417 kts | 200° |
| 2026-05-05 20:04 | 41.13728 | 3.74707 | 33242 ft | 414 kts | 203° |
| 2026-05-05 20:05 | 41.11000 | 3.73455 | 32568 ft | 410 kts | 206° |
| 2026-05-05 20:05 | 41.08349 | 3.72095 | 32031 ft | 406 kts | 207° |
| 2026-05-05 20:05 | 41.05760 | 3.70775 | 31453 ft | 403 kts | 207° |
| 2026-05-05 20:05 | 41.03151 | 3.69439 | 30893 ft | 400 kts | 207° |
| 2026-05-05 20:06 | 41.00549 | 3.68109 | 30342 ft | 397 kts | 207° |
| 2026-05-05 20:06 | 40.97977 | 3.66793 | 29751 ft | 395 kts | 207° |
| 2026-05-05 20:06 | 40.95426 | 3.65481 | 29188 ft | 392 kts | 207° |
| 2026-05-05 20:06 | 40.92919 | 3.64196 | 28486 ft | 388 kts | 207° |
| 2026-05-05 20:07 | 40.90425 | 3.62918 | 27523 ft | 386 kts | 207° |
| 2026-05-05 20:07 | 40.87912 | 3.61628 | 26234 ft | 392 kts | 207° |
| 2026-05-05 20:07 | 40.85351 | 3.60310 | 25211 ft | 399 kts | 207° |
| 2026-05-05 20:07 | 40.82766 | 3.58985 | 24415 ft | 397 kts | 206° |
| 2026-05-05 20:08 | 40.80219 | 3.57689 | 23725 ft | 386 kts | 206° |
| 2026-05-05 20:08 | 40.77746 | 3.56431 | 23181 ft | 373 kts | 207° |
| 2026-05-05 20:08 | 40.75389 | 3.55232 | 22796 ft | 358 kts | 207° |
| 2026-05-05 20:08 | 40.73098 | 3.54066 | 22413 ft | 346 kts | 207° |
| 2026-05-05 20:09 | 40.70886 | 3.52935 | 22059 ft | 342 kts | 207° |
| 2026-05-05 20:09 | 40.68672 | 3.51803 | 21673 ft | 339 kts | 207° |
| 2026-05-05 20:09 | 40.66478 | 3.50683 | 21296 ft | 337 kts | 207° |
| 2026-05-05 20:09 | 40.64290 | 3.49567 | 20925 ft | 334 kts | 207° |
| 2026-05-05 20:10 | 40.62137 | 3.48470 | 20559 ft | 331 kts | 206° |
| 2026-05-05 20:10 | 40.59983 | 3.47372 | 20195 ft | 329 kts | 206° |
| 2026-05-05 20:10 | 40.57859 | 3.46294 | 19828 ft | 326 kts | 207° |
| 2026-05-05 20:10 | 40.55775 | 3.45235 | 19471 ft | 324 kts | 206° |
| 2026-05-05 20:11 | 40.53680 | 3.44172 | 19109 ft | 322 kts | 206° |
| 2026-05-05 20:11 | 40.51595 | 3.43115 | 18755 ft | 319 kts | 206° |
| 2026-05-05 20:11 | 40.49535 | 3.42072 | 18403 ft | 317 kts | 206° |
| 2026-05-05 20:11 | 40.47463 | 3.41022 | 18047 ft | 315 kts | 206° |
| 2026-05-05 20:12 | 40.45391 | 3.40092 | 17693 ft | 316 kts | 200° |
| 2026-05-05 20:12 | 40.43225 | 3.39565 | 17340 ft | 318 kts | 192° |
| 2026-05-05 20:12 | 40.41013 | 3.39452 | 16993 ft | 321 kts | 186° |
| 2026-05-05 20:12 | 40.38787 | 3.39549 | 16657 ft | 320 kts | 185° |
| 2026-05-05 20:13 | 40.36562 | 3.39671 | 16320 ft | 318 kts | 184° |
| 2026-05-05 20:13 | 40.34335 | 3.39798 | 15990 ft | 316 kts | 184° |
| 2026-05-05 20:13 | 40.32157 | 3.39923 | 15678 ft | 314 kts | 184° |
| 2026-05-05 20:13 | 40.29990 | 3.40048 | 15369 ft | 311 kts | 184° |
| 2026-05-05 20:14 | 40.27835 | 3.40169 | 15055 ft | 309 kts | 184° |
| 2026-05-05 20:14 | 40.25691 | 3.40290 | 14746 ft | 307 kts | 184° |
| 2026-05-05 20:14 | 40.23568 | 3.40413 | 14434 ft | 305 kts | 184° |
| 2026-05-05 20:14 | 40.21449 | 3.40530 | 14121 ft | 303 kts | 183° |
| 2026-05-05 20:15 | 40.19354 | 3.40649 | 13810 ft | 302 kts | 183° |
| 2026-05-05 20:15 | 40.17248 | 3.40767 | 13497 ft | 300 kts | 183° |
| 2026-05-05 20:15 | 40.15181 | 3.40885 | 13187 ft | 299 kts | 183° |
| 2026-05-05 20:15 | 40.13107 | 3.41002 | 12859 ft | 299 kts | 183° |
| 2026-05-05 20:16 | 40.11030 | 3.41119 | 12530 ft | 298 kts | 183° |
| 2026-05-05 20:16 | 40.08969 | 3.41235 | 12275 ft | 295 kts | 183° |
| 2026-05-05 20:16 | 40.06940 | 3.41352 | 12240 ft | 283 kts | 183° |
| 2026-05-05 20:16 | 40.05004 | 3.41465 | 12205 ft | 272 kts | 183° |
| 2026-05-05 20:17 | 40.03140 | 3.41572 | 12171 ft | 267 kts | 184° |
| 2026-05-05 20:17 | 40.01282 | 3.41676 | 11937 ft | 268 kts | 183° |
| 2026-05-05 20:17 | 39.99416 | 3.41779 | 11657 ft | 267 kts | 183° |
| 2026-05-05 20:17 | 39.97574 | 3.41882 | 11398 ft | 266 kts | 183° |
| 2026-05-05 20:18 | 39.95702 | 3.41987 | 11140 ft | 265 kts | 183° |
| 2026-05-05 20:18 | 39.93881 | 3.42088 | 10889 ft | 264 kts | 183° |
| 2026-05-05 20:18 | 39.92062 | 3.42189 | 10640 ft | 262 kts | 183° |
| 2026-05-05 20:18 | 39.90236 | 3.42292 | 10395 ft | 261 kts | 183° |
| 2026-05-05 20:19 | 39.88425 | 3.42394 | 10154 ft | 260 kts | 183° |
| 2026-05-05 20:19 | 39.86596 | 3.42496 | 9898 ft | 260 kts | 183° |
| 2026-05-05 20:19 | 39.84789 | 3.42595 | 9654 ft | 259 kts | 182° |
| 2026-05-05 20:19 | 39.82981 | 3.42695 | 9399 ft | 259 kts | 183° |
| 2026-05-05 20:20 | 39.81186 | 3.42795 | 9149 ft | 259 kts | 182° |
| 2026-05-05 20:20 | 39.79382 | 3.42896 | 8899 ft | 258 kts | 182° |
| 2026-05-05 20:20 | 39.77577 | 3.42998 | 8655 ft | 258 kts | 182° |
| 2026-05-05 20:20 | 39.75795 | 3.43098 | 8408 ft | 257 kts | 182° |
| 2026-05-05 20:21 | 39.74012 | 3.43195 | 8161 ft | 256 kts | 184° |
| 2026-05-05 20:21 | 39.72284 | 3.42823 | 7879 ft | 248 kts | 208° |
| 2026-05-05 20:21 | 39.70928 | 3.41550 | 7635 ft | 242 kts | 232° |
| 2026-05-05 20:21 | 39.70101 | 3.39652 | 7329 ft | 241 kts | 255° |
| 2026-05-05 20:22 | 39.69933 | 3.37500 | 7052 ft | 241 kts | 271° |
| 2026-05-05 20:22 | 39.70007 | 3.35335 | 6825 ft | 240 kts | 272° |
| 2026-05-05 20:22 | 39.70084 | 3.33154 | 6585 ft | 240 kts | 271° |
| 2026-05-05 20:22 | 39.70158 | 3.31010 | 6353 ft | 239 kts | 271° |
| 2026-05-05 20:23 | 39.70229 | 3.28849 | 6115 ft | 239 kts | 272° |
| 2026-05-05 20:23 | 39.70300 | 3.26676 | 5872 ft | 239 kts | 272° |
| 2026-05-05 20:23 | 39.70368 | 3.24530 | 5633 ft | 239 kts | 272° |
| 2026-05-05 20:23 | 39.70436 | 3.22383 | 5394 ft | 239 kts | 272° |
| 2026-05-05 20:24 | 39.70503 | 3.20242 | 5158 ft | 239 kts | 272° |
| 2026-05-05 20:24 | 39.70569 | 3.18082 | 4923 ft | 239 kts | 272° |
| 2026-05-05 20:24 | 39.70635 | 3.15936 | 4689 ft | 238 kts | 272° |
| 2026-05-05 20:24 | 39.70700 | 3.13788 | 4507 ft | 236 kts | 272° |
| 2026-05-05 20:25 | 39.70763 | 3.11687 | 4483 ft | 226 kts | 272° |
| 2026-05-05 20:25 | 39.70792 | 3.09708 | 4476 ft | 216 kts | 265° |
| 2026-05-05 20:25 | 39.70401 | 3.07839 | 4415 ft | 218 kts | 246° |
| 2026-05-05 20:25 | 39.69690 | 3.06094 | 4162 ft | 220 kts | 242° |
| 2026-05-05 20:26 | 39.68911 | 3.04373 | 3943 ft | 221 kts | 240° |
| 2026-05-05 20:26 | 39.68109 | 3.02661 | 3742 ft | 221 kts | 240° |
| 2026-05-05 20:26 | 39.67303 | 3.00961 | 3545 ft | 221 kts | 240° |
| 2026-05-05 20:26 | 39.66497 | 2.99269 | 3352 ft | 219 kts | 240° |
| 2026-05-05 20:27 | 39.65703 | 2.97602 | 3160 ft | 217 kts | 240° |
| 2026-05-05 20:27 | 39.64920 | 2.95957 | 3011 ft | 212 kts | 239° |
| 2026-05-05 20:27 | 39.64162 | 2.94363 | 2986 ft | 195 kts | 240° |
| 2026-05-05 20:27 | 39.63483 | 2.92937 | 2925 ft | 179 kts | 240° |
| 2026-05-05 20:28 | 39.62836 | 2.91571 | 2712 ft | 177 kts | 240° |
| 2026-05-05 20:28 | 39.62188 | 2.90204 | 2482 ft | 177 kts | 240° |
| 2026-05-05 20:28 | 39.61548 | 2.88853 | 2267 ft | 172 kts | 240° |
| 2026-05-05 20:28 | 39.60933 | 2.87558 | 2038 ft | 168 kts | 240° |
| 2026-05-05 20:29 | 39.60331 | 2.86287 | 1814 ft | 163 kts | 240° |
| 2026-05-05 20:29 | 39.59742 | 2.85045 | 1601 ft | 158 kts | 240° |
| 2026-05-05 20:29 | 39.59179 | 2.83855 | 1391 ft | 153 kts | 240° |
| 2026-05-05 20:29 | 39.58638 | 2.82712 | 1191 ft | 147 kts | 239° |
| 2026-05-05 20:30 | 39.58111 | 2.81598 | 1006 ft | 140 kts | 239° |
| 2026-05-05 20:30 | 39.57611 | 2.80542 | 831 ft | 137 kts | 239° |
| 2026-05-05 20:30 | 39.57112 | 2.79486 | 661 ft | 137 kts | 238° |
| 2026-05-05 20:30 | 39.56605 | 2.78418 | 478 ft | 137 kts | 238° |
| 2026-05-05 20:31 | 39.56108 | 2.77368 | 298 ft | 137 kts | 238° |
| 2026-05-05 20:31 | 39.55615 | 2.76321 | 129 ft | 137 kts | 237° |
| 2026-05-05 20:31 | 39.55122 | 2.75287 | 49 ft | 122 kts | 239° |
| 2026-05-05 20:31 | 39.54770 | 2.74536 | 49 ft | 72 kts | 238° |
| 2026-05-05 20:32 | 39.54596 | 2.74154 | 49 ft | 36 kts | 245° |
| 2026-05-05 20:32 | 39.54551 | 2.73879 | 48 ft | 22 kts | 274° |
| 2026-05-05 20:32 | 39.54549 | 2.73797 | 49 ft | 4 kts | 267° |
| 2026-05-05 20:32 | 39.54548 | 2.73783 | 48 ft | 0 kts | 267° |
| 2026-05-05 20:33 | 39.54548 | 2.73770 | 49 ft | 2 kts | 267° |
| 2026-05-05 20:33 | 39.54549 | 2.73736 | 49 ft | 4 kts | 288° |
| 2026-05-05 20:33 | 39.54578 | 2.73714 | 49 ft | 5 kts | 7° |
| 2026-05-05 20:34 | 39.54613 | 2.73757 | 49 ft | 8 kts | 57° |
| 2026-05-05 20:34 | 39.54649 | 2.73827 | 49 ft | 10 kts | 57° |
| 2026-05-05 20:34 | 39.54689 | 2.73910 | 49 ft | 9 kts | 57° |
| 2026-05-05 20:34 | 39.54733 | 2.73920 | 49 ft | 8 kts | 335° |
| 2026-05-05 20:35 | 39.54772 | 2.73913 | 49 ft | 4 kts | 26° |
| 2026-05-05 20:35 | 39.54796 | 2.73961 | 49 ft | 7 kts | 61° |
| 2026-05-05 20:35 | 39.54834 | 2.74000 | 49 ft | 6 kts | 1° |
| 2026-05-05 20:35 | 39.54886 | 2.73968 | 49 ft | 9 kts | 328° |
| 2026-05-05 20:36 | 39.54945 | 2.73921 | 49 ft | 10 kts | 328° |
| 2026-05-05 20:36 | 39.54987 | 2.73877 | 49 ft | 5 kts | 292° |
| 2026-05-05 20:36 | 39.54974 | 2.73828 | 49 ft | 6 kts | 234° |
| 2026-05-05 20:36 | 39.54950 | 2.73779 | 49 ft | 3 kts | 239° |
| 2026-05-05 20:37 | 39.54946 | 2.73773 | 49 ft | 0 kts | 238° |